createdAt,value
2018-12-12T00:00:48.140Z,101073.36
2018-12-12T00:03:14.888Z,101077.31
2018-12-12T00:05:41.656Z,101076.22
2018-12-12T00:08:08.400Z,101075.42
2018-12-12T00:10:35.148Z,101073.14
2018-12-12T00:13:01.897Z,101079.73
2018-12-12T00:15:28.662Z,101080.63
2018-12-12T00:17:55.376Z,101074.77
2018-12-12T00:20:22.125Z,101073.38
2018-12-12T00:22:48.854Z,101067.92
2018-12-12T00:25:15.638Z,101068.05
2018-12-12T00:27:42.392Z,101068.08
2018-12-12T00:30:09.144Z,101062.73
2018-12-12T00:32:35.917Z,101053.58
2018-12-12T00:35:02.892Z,101060.95
2018-12-12T00:37:29.648Z,101062.29
2018-12-12T00:39:56.373Z,101050.86
2018-12-12T00:42:23.134Z,101058.28
2018-12-12T00:44:49.863Z,101056.16
2018-12-12T00:47:16.608Z,101055.71
2018-12-12T00:49:43.348Z,101061.38
2018-12-12T00:52:10.100Z,101058.86
2018-12-12T00:54:36.837Z,101056.01
2018-12-12T00:57:04.975Z,101062.13
2018-12-12T00:59:31.725Z,101060.02
2018-12-12T01:01:58.471Z,101069.94
2018-12-12T01:04:25.217Z,101068.88
2018-12-12T01:06:51.993Z,101069.00
2018-12-12T01:09:18.743Z,101070.69
2018-12-12T01:11:51.184Z,101066.43
2018-12-12T01:14:17.925Z,101063.38
2018-12-12T01:16:44.691Z,101060.56
2018-12-12T01:19:11.436Z,101056.69
2018-12-12T01:21:38.184Z,101048.83
2018-12-12T01:24:04.912Z,101049.40
2018-12-12T01:26:31.660Z,101056.01
2018-12-12T01:28:58.400Z,101058.80
2018-12-12T01:31:25.308Z,101067.59
2018-12-12T01:33:52.052Z,101059.41
2018-12-12T01:36:18.817Z,101057.97
2018-12-12T01:38:45.557Z,101054.55
2018-12-12T01:41:12.321Z,101053.52
2018-12-12T01:43:39.093Z,101051.41
2018-12-12T01:46:05.858Z,101053.91
2018-12-12T01:48:32.600Z,101053.98
2018-12-12T01:50:59.360Z,101057.55
2018-12-12T01:53:26.096Z,101051.86
2018-12-12T01:55:52.857Z,101054.03
2018-12-12T01:58:19.585Z,101058.23
2018-12-12T02:00:46.345Z,101057.78
2018-12-12T02:03:13.076Z,101065.30
2018-12-12T02:05:39.832Z,101049.14
2018-12-12T02:08:06.563Z,101062.49
2018-12-12T02:10:33.316Z,101063.13
2018-12-12T02:13:11.497Z,101056.45
2018-12-12T02:15:38.232Z,101057.30
2018-12-12T02:18:05.003Z,101062.39
2018-12-12T02:20:31.768Z,101061.97
2018-12-12T02:22:58.544Z,101063.02
2018-12-12T02:25:25.276Z,101067.63
2018-12-12T02:27:52.037Z,101065.64
2018-12-12T02:30:18.781Z,101065.97
2018-12-12T02:32:45.527Z,101061.97
2018-12-12T02:35:12.297Z,101059.03
2018-12-12T02:37:39.057Z,101054.84
2018-12-12T02:40:05.797Z,101054.39
2018-12-12T02:42:32.568Z,101049.59
2018-12-12T02:44:59.367Z,101052.91
2018-12-12T02:47:26.117Z,101045.55
2018-12-12T02:49:52.877Z,101044.27
2018-12-12T02:52:19.632Z,101051.79
2018-12-12T02:54:46.396Z,101047.42
2018-12-12T02:57:13.247Z,101048.70
2018-12-12T02:59:39.944Z,101050.48
2018-12-12T03:02:06.712Z,101051.07
2018-12-12T03:04:33.435Z,101046.13
2018-12-12T03:07:00.208Z,101046.25
2018-12-12T03:09:26.946Z,101043.18
2018-12-12T03:11:53.716Z,101045.25
2018-12-12T03:14:20.468Z,101047.81
2018-12-12T03:16:47.226Z,101044.51
2018-12-12T03:19:13.970Z,101047.33
2018-12-12T03:21:40.748Z,101048.76
2018-12-12T03:24:07.489Z,101048.46
2018-12-12T03:26:34.232Z,101050.20
2018-12-12T03:29:00.965Z,101041.59
2018-12-12T03:31:27.771Z,101045.25
2018-12-12T03:33:54.508Z,101043.22
2018-12-12T03:36:21.301Z,101037.85
2018-12-12T03:38:48.052Z,101041.59
2018-12-12T03:41:14.809Z,101038.95
2018-12-12T03:43:41.536Z,101043.97
2018-12-12T03:46:08.288Z,101042.98
2018-12-12T03:48:35.020Z,101040.02
2018-12-12T03:51:01.770Z,101042.30
2018-12-12T03:53:28.521Z,101048.44
2018-12-12T03:55:55.284Z,101039.55
2018-12-12T03:58:22.036Z,101040.34
2018-12-12T04:00:48.833Z,101044.66
2018-12-12T04:03:15.668Z,101049.27
2018-12-12T04:05:42.433Z,101046.58
2018-12-12T04:08:09.166Z,101048.84
2018-12-12T04:10:35.912Z,101057.59
2018-12-12T04:13:02.665Z,101058.58
2018-12-12T04:15:29.420Z,101062.88
2018-12-12T04:17:56.165Z,101059.26
2018-12-12T04:20:22.924Z,101051.63
2018-12-12T04:22:49.716Z,101057.82
2018-12-12T04:25:16.442Z,101056.05
2018-12-12T04:27:43.204Z,101056.61
2018-12-12T04:30:10.138Z,101060.39
2018-12-12T04:32:36.843Z,101057.22
2018-12-12T04:35:03.596Z,101061.97
2018-12-12T04:37:30.364Z,101058.50
2018-12-12T04:39:57.126Z,101048.61
2018-12-12T04:42:23.893Z,101053.42
2018-12-12T04:44:50.649Z,101059.80
2018-12-12T04:47:17.412Z,101055.33
2018-12-12T04:49:44.157Z,101055.03
2018-12-12T04:52:10.917Z,101053.23
2018-12-12T04:54:37.668Z,101053.82
2018-12-12T04:57:04.435Z,101046.96
2018-12-12T04:59:31.160Z,101046.83
2018-12-12T05:01:57.928Z,101046.04
2018-12-12T05:04:24.680Z,101053.33
2018-12-12T05:06:51.460Z,101056.97
2018-12-12T05:09:18.195Z,101049.97
2018-12-12T05:11:44.978Z,101054.72
2018-12-12T05:14:11.700Z,101052.52
2018-12-12T05:16:38.603Z,101056.59
2018-12-12T05:19:05.419Z,101052.27
2018-12-12T05:21:32.161Z,101049.04
2018-12-12T05:23:59.004Z,101058.39
2018-12-12T05:26:25.761Z,101053.50
2018-12-12T05:28:52.509Z,101056.80
2018-12-12T05:31:19.288Z,101058.27
2018-12-12T05:33:46.038Z,101063.14
2018-12-12T05:36:12.764Z,101065.80
2018-12-12T05:38:39.532Z,101066.96
2018-12-12T05:41:06.278Z,101064.55
2018-12-12T05:43:33.081Z,101073.57
2018-12-12T05:46:00.112Z,101071.22
2018-12-12T05:48:26.936Z,101071.91
2018-12-12T05:50:53.676Z,101076.05
2018-12-12T05:53:20.424Z,101069.00
2018-12-12T05:55:47.176Z,101072.02
2018-12-12T05:58:14.279Z,101070.35
2018-12-12T06:00:41.021Z,101064.98
2018-12-12T06:03:07.752Z,101063.61
2018-12-12T06:05:34.540Z,101053.69
2018-12-12T06:08:01.313Z,101069.34
2018-12-12T06:10:28.096Z,101064.13
2018-12-12T06:12:54.845Z,101068.42
2018-12-12T06:15:21.696Z,101067.63
2018-12-12T06:17:48.468Z,101067.20
2018-12-12T06:20:15.241Z,101066.99
2018-12-12T06:22:41.996Z,101070.13
2018-12-12T06:25:08.761Z,101070.86
2018-12-12T06:27:35.508Z,101072.40
2018-12-12T06:30:02.307Z,101066.02
2018-12-12T06:32:29.108Z,101068.31
2018-12-12T06:34:55.844Z,101076.80
2018-12-12T06:37:22.660Z,101078.27
2018-12-12T06:39:49.408Z,101071.45
2018-12-12T06:42:16.168Z,101069.78
2018-12-12T06:44:42.891Z,101076.80
2018-12-12T06:47:09.651Z,101071.00
2018-12-12T06:49:36.401Z,101080.50
2018-12-12T06:52:03.159Z,101080.62
2018-12-12T06:54:30.133Z,101084.53
2018-12-12T06:56:56.889Z,101086.53
2018-12-12T06:59:23.632Z,101084.23
2018-12-12T07:01:50.393Z,101086.66
2018-12-12T07:04:17.132Z,101084.10
2018-12-12T07:06:44.020Z,101096.01
2018-12-12T07:09:10.759Z,101090.69
2018-12-12T07:11:37.536Z,101088.81
2018-12-12T07:14:04.272Z,101090.02
2018-12-12T07:16:31.060Z,101091.86
2018-12-12T07:18:57.804Z,101093.14
2018-12-12T07:21:24.556Z,101091.09
2018-12-12T07:23:51.312Z,101093.34
2018-12-12T07:26:18.060Z,101091.64
2018-12-12T07:28:44.806Z,101097.25
2018-12-12T07:31:11.564Z,101094.27
2018-12-12T07:33:38.383Z,101102.39
2018-12-12T07:36:05.137Z,101100.88
2018-12-12T07:38:31.912Z,101099.00
2018-12-12T07:40:58.720Z,101098.61
2018-12-12T07:43:25.457Z,101102.50
2018-12-12T07:45:52.242Z,101099.94
2018-12-12T07:48:18.984Z,101091.52
2018-12-12T07:50:45.708Z,101093.39
2018-12-12T07:53:12.480Z,101098.61
2018-12-12T07:55:39.230Z,101098.28
2018-12-12T07:58:05.990Z,101105.48
2018-12-12T08:00:32.731Z,101102.77
2018-12-12T08:03:05.512Z,101103.38
2018-12-12T08:05:26.241Z,101101.37
2018-12-12T08:07:53.020Z,101101.15
2018-12-12T08:10:19.761Z,101093.70
2018-12-12T08:12:46.524Z,101096.12
2018-12-12T08:15:13.281Z,101099.30
2018-12-12T08:17:40.133Z,101097.87
2018-12-12T08:20:06.881Z,101100.61
2018-12-12T08:22:33.644Z,101106.64
2018-12-12T08:25:00.384Z,101108.09
2018-12-12T08:27:27.153Z,101106.39
2018-12-12T08:29:53.928Z,101097.80
2018-12-12T08:32:20.668Z,101100.83
2018-12-12T08:34:47.445Z,101101.86
2018-12-12T08:37:14.196Z,101108.69
2018-12-12T08:39:40.972Z,101106.36
2018-12-12T08:42:07.725Z,101105.70
2018-12-12T08:44:34.500Z,101105.38
2018-12-12T08:47:01.340Z,101104.13
2018-12-12T08:49:28.145Z,101104.66
2018-12-12T08:51:54.880Z,101106.34
2018-12-12T08:54:21.633Z,101111.41
2018-12-12T08:56:48.376Z,101110.06
2018-12-12T08:59:15.144Z,101109.97
2018-12-12T09:01:41.884Z,101115.17
2018-12-12T09:04:08.648Z,101110.76
2018-12-12T09:06:35.413Z,101105.06
2018-12-12T09:09:02.320Z,101107.02
2018-12-12T09:11:29.060Z,101103.95
2018-12-12T09:13:55.796Z,101111.52
2018-12-12T09:16:22.568Z,101109.48
2018-12-12T09:18:49.308Z,101115.67
2018-12-12T09:21:16.085Z,101116.13
2018-12-12T09:23:42.832Z,101121.89
2018-12-12T09:26:09.616Z,101114.01
2018-12-12T09:28:36.356Z,101120.81
2018-12-12T09:31:03.151Z,101116.28
2018-12-12T09:33:29.897Z,101115.83
2018-12-12T09:35:56.661Z,101116.52
2018-12-12T09:38:23.453Z,101111.74
2018-12-12T09:40:50.212Z,101113.22
2018-12-12T09:43:16.956Z,101111.30
2018-12-12T09:45:43.727Z,101107.44
2018-12-12T09:48:10.536Z,101113.22
2018-12-12T09:50:37.301Z,101106.31
2018-12-12T09:53:04.056Z,101098.70
2018-12-12T09:55:30.821Z,101093.91
2018-12-12T09:57:57.560Z,101098.59
2018-12-12T10:00:24.324Z,101102.07
2018-12-12T10:02:51.060Z,101096.77
2018-12-12T10:05:17.844Z,101098.89
2018-12-12T10:07:44.587Z,101097.75
2018-12-12T10:10:11.345Z,101087.31
2018-12-12T10:12:38.099Z,101087.77
2018-12-12T10:15:04.952Z,101081.06
2018-12-12T10:17:31.713Z,101084.08
2018-12-12T10:19:58.481Z,101079.23
2018-12-12T10:22:25.238Z,101073.44
2018-12-12T10:24:51.997Z,101074.49
2018-12-12T10:27:18.756Z,101072.84
2018-12-12T10:29:45.494Z,101072.78
2018-12-12T10:32:12.292Z,101066.61
2018-12-12T10:34:39.000Z,101065.33
2018-12-12T10:37:05.756Z,101061.88
2018-12-12T10:39:32.700Z,101058.94
2018-12-12T10:41:59.460Z,101062.16
2018-12-12T10:44:26.197Z,101064.55
2018-12-12T10:46:52.958Z,101065.38
2018-12-12T10:49:19.688Z,101066.98
2018-12-12T10:51:46.450Z,101056.33
2018-12-12T10:54:13.197Z,101059.28
2018-12-12T10:56:39.959Z,101060.66
2018-12-12T10:59:06.692Z,101055.69
2018-12-12T11:01:39.309Z,101055.88
2018-12-12T11:04:06.061Z,101049.52
2018-12-12T11:06:32.819Z,101050.19
2018-12-12T11:08:59.544Z,101052.88
2018-12-12T11:11:26.296Z,101047.05
2018-12-12T11:13:53.061Z,101045.77
2018-12-12T11:16:19.817Z,101047.05
2018-12-12T11:18:46.589Z,101041.62
2018-12-12T11:21:13.356Z,101039.87
2018-12-12T11:23:40.108Z,101029.36
2018-12-12T11:26:06.886Z,101032.11
2018-12-12T11:28:33.626Z,101023.66
2018-12-12T11:31:00.381Z,101020.80
2018-12-12T11:33:27.128Z,101019.86
2018-12-12T11:35:53.883Z,101021.63
2018-12-12T11:38:20.633Z,101015.73
2018-12-12T11:40:47.374Z,101011.95
2018-12-12T11:43:14.132Z,101017.95
2018-12-12T11:45:40.879Z,101015.15
2018-12-12T11:48:07.636Z,101006.61
2018-12-12T11:50:34.372Z,101009.55
2018-12-12T11:53:01.146Z,101008.72
2018-12-12T11:55:27.907Z,101007.42
2018-12-12T11:57:54.652Z,100986.69
2018-12-12T12:00:21.420Z,100993.88
2018-12-12T12:02:48.172Z,100995.42
2018-12-12T12:05:14.919Z,100985.63
2018-12-12T12:07:41.679Z,100982.58
2018-12-12T12:10:09.487Z,100984.23
2018-12-12T12:12:36.240Z,100983.91
2018-12-12T12:15:03.465Z,100987.68
2018-12-12T12:17:30.211Z,100978.02
2018-12-12T12:19:56.990Z,100973.98
2018-12-12T12:22:23.749Z,100975.44
2018-12-12T12:24:50.480Z,100972.25
2018-12-12T12:27:17.256Z,100973.66
2018-12-12T12:29:44.005Z,100968.84
2018-12-12T12:32:10.789Z,100979.22
2018-12-12T12:34:37.535Z,100970.95
2018-12-12T12:37:04.292Z,100971.73
2018-12-12T12:39:31.040Z,100973.55
2018-12-12T12:41:57.792Z,100962.89
2018-12-12T12:44:24.647Z,100955.51
2018-12-12T12:46:51.409Z,100949.39
2018-12-12T12:49:18.172Z,100950.55
2018-12-12T12:51:44.928Z,100946.06
2018-12-12T12:54:11.712Z,100947.77
2018-12-12T12:56:38.452Z,100938.35
2018-12-12T12:59:05.209Z,100933.46
2018-12-12T13:01:32.025Z,100932.89
2018-12-12T13:04:00.971Z,100940.98
2018-12-12T13:06:28.634Z,100933.97
2018-12-12T13:08:55.452Z,100935.46
2018-12-12T13:11:22.252Z,100936.47
2018-12-12T13:13:49.315Z,100932.78
2018-12-12T13:16:16.510Z,100930.64
2018-12-12T13:18:43.321Z,100937.39
2018-12-12T13:21:10.316Z,100933.62
2018-12-12T13:23:37.152Z,100938.19
2018-12-12T13:26:03.945Z,100941.45
2018-12-12T13:28:30.700Z,100944.53
2018-12-12T13:30:57.455Z,100933.47
2018-12-12T13:33:24.207Z,100933.20
2018-12-12T13:35:50.952Z,100935.31
2018-12-12T13:38:17.712Z,100938.09
2018-12-12T13:40:44.460Z,100934.03
2018-12-12T13:43:11.220Z,100933.47
2018-12-12T13:45:38.107Z,100928.55
2018-12-12T13:48:04.869Z,100936.76
2018-12-12T13:50:31.639Z,100933.57
2018-12-12T13:52:58.392Z,100927.78
2018-12-12T13:55:25.133Z,100926.58
2018-12-12T13:57:51.917Z,100926.03
2018-12-12T14:00:18.680Z,100923.72
2018-12-12T14:02:45.452Z,100924.09
2018-12-12T14:05:12.189Z,100917.73
2018-12-12T14:07:38.968Z,100913.98
2018-12-12T14:10:05.744Z,100913.88
2018-12-12T14:12:32.494Z,100912.69
2018-12-12T14:14:59.252Z,100909.92
2018-12-12T14:17:25.992Z,100907.60
2018-12-12T14:19:52.750Z,100913.05
2018-12-12T14:22:19.487Z,100908.45
2018-12-12T14:24:46.242Z,100915.09
2018-12-12T14:27:13.000Z,100917.11
2018-12-12T14:29:39.763Z,100919.49
2018-12-12T14:32:06.520Z,100914.89
2018-12-12T14:34:33.272Z,100910.12
2018-12-12T14:37:00.008Z,100911.48
2018-12-12T14:39:26.775Z,100915.73
2018-12-12T14:41:53.528Z,100918.41
2018-12-12T14:44:20.280Z,100918.66
2018-12-12T14:46:47.045Z,100911.59
2018-12-12T14:49:13.841Z,100911.22
2018-12-12T14:51:40.580Z,100913.78
2018-12-12T14:54:07.364Z,100913.05
2018-12-12T14:56:34.211Z,100905.97
2018-12-12T14:59:00.957Z,100911.66
2018-12-12T15:01:27.697Z,100913.98
2018-12-12T15:03:54.588Z,100911.48
2018-12-12T15:06:21.356Z,100906.70
2018-12-12T15:08:48.208Z,100909.83
2018-12-12T15:11:14.944Z,100909.28
2018-12-12T15:13:41.780Z,100908.27
2018-12-12T15:16:08.560Z,100916.19
2018-12-12T15:18:35.301Z,100910.11
2018-12-12T15:21:02.051Z,100910.20
2018-12-12T15:23:28.843Z,100911.13
2018-12-12T15:25:55.588Z,100910.84
2018-12-12T15:28:22.316Z,100911.67
2018-12-12T15:30:49.184Z,100909.83
2018-12-12T15:33:15.948Z,100910.93
2018-12-12T15:35:42.712Z,100909.55
2018-12-12T15:38:09.483Z,100909.47
2018-12-12T15:40:36.257Z,100909.09
2018-12-12T15:43:03.046Z,100909.89
2018-12-12T15:45:29.929Z,100908.63
2018-12-12T15:47:56.672Z,100909.73
2018-12-12T15:50:23.492Z,100907.04
2018-12-12T15:52:50.253Z,100906.21
2018-12-12T15:55:16.998Z,100901.98
2018-12-12T15:57:43.758Z,100902.81
2018-12-12T16:00:10.551Z,100900.72
2018-12-12T16:02:37.308Z,100895.55
2018-12-12T16:05:04.196Z,100897.47
2018-12-12T16:07:30.992Z,100890.57
2018-12-12T16:09:57.749Z,100893.25
2018-12-12T16:12:24.481Z,100896.92
2018-12-12T16:14:51.332Z,100896.74
2018-12-12T16:17:18.072Z,100901.61
2018-12-12T16:19:44.864Z,100898.85
2018-12-12T16:22:11.620Z,100902.16
2018-12-12T16:24:38.557Z,100898.13
2018-12-12T16:27:05.324Z,100899.22
2018-12-12T16:29:32.168Z,100891.94
2018-12-12T16:31:58.962Z,100893.68
2018-12-12T16:34:25.736Z,100894.14
2018-12-12T16:36:52.484Z,100893.41
2018-12-12T16:39:19.235Z,100891.56
2018-12-12T16:41:45.991Z,100897.30
2018-12-12T16:44:12.730Z,100897.63
2018-12-12T16:46:39.529Z,100898.98
2018-12-12T16:49:06.396Z,100904.22
2018-12-12T16:51:33.165Z,100897.70
2018-12-12T16:53:59.971Z,100894.84
2018-12-12T16:56:26.740Z,100898.09
2018-12-12T16:58:53.556Z,100894.87
2018-12-12T17:01:20.306Z,100892.91
2018-12-12T17:03:47.120Z,100890.39
2018-12-12T17:06:13.880Z,100883.45
2018-12-12T17:08:40.633Z,100882.17
2018-12-12T17:11:07.400Z,100882.44
2018-12-12T17:13:34.200Z,100883.30
2018-12-12T17:16:00.988Z,100876.73
2018-12-12T17:18:27.788Z,100880.27
2018-12-12T17:20:54.551Z,100884.22
2018-12-12T17:23:21.276Z,100887.58
2018-12-12T17:25:48.052Z,100877.28
2018-12-12T17:28:14.812Z,100883.16
2018-12-12T17:30:41.654Z,100883.52
2018-12-12T17:33:08.384Z,100876.44
2018-12-12T17:35:35.147Z,100879.47
2018-12-12T17:38:01.892Z,100880.95
2018-12-12T17:40:28.699Z,100878.01
2018-12-12T17:42:55.492Z,100873.95
2018-12-12T17:45:22.242Z,100877.77
2018-12-12T17:47:48.980Z,100877.86
2018-12-12T17:50:15.740Z,100874.28
2018-12-12T17:52:42.488Z,100872.76
2018-12-12T17:55:09.256Z,100871.53
2018-12-12T17:57:36.060Z,100873.52
2018-12-12T18:00:02.920Z,100875.62
2018-12-12T18:02:29.709Z,100879.17
2018-12-12T18:04:56.668Z,100876.96
2018-12-12T18:07:23.438Z,100869.20
2018-12-12T18:09:50.172Z,100875.58
2018-12-12T18:12:16.932Z,100873.28
2018-12-12T18:14:43.668Z,100874.61
2018-12-12T18:17:10.417Z,100870.84
2018-12-12T18:19:37.149Z,100871.12
2018-12-12T18:22:03.915Z,100871.86
2018-12-12T18:24:30.648Z,100867.31
2018-12-12T18:26:57.401Z,100877.23
2018-12-12T18:29:24.131Z,100873.42
2018-12-12T18:31:50.901Z,100873.84
2018-12-12T18:34:17.639Z,100873.28
2018-12-12T18:36:44.407Z,100873.14
2018-12-12T18:39:11.149Z,100863.03
2018-12-12T18:41:37.903Z,100863.69
2018-12-12T18:44:04.664Z,100859.36
2018-12-12T18:46:31.424Z,100860.23
2018-12-12T18:48:58.183Z,100860.37
2018-12-12T18:51:24.925Z,100866.52
2018-12-12T18:53:51.660Z,100861.29
2018-12-12T18:56:18.531Z,100856.97
2018-12-12T18:58:45.261Z,100858.91
2018-12-12T19:01:12.016Z,100853.20
2018-12-12T19:03:38.758Z,100858.98
2018-12-12T19:06:05.524Z,100858.25
2018-12-12T19:08:32.620Z,100857.41
2018-12-12T19:11:00.426Z,100857.70
2018-12-12T19:13:27.157Z,100859.44
2018-12-12T19:15:53.920Z,100857.43
2018-12-12T19:18:20.656Z,100850.86
2018-12-12T19:20:47.416Z,100850.27
2018-12-12T19:23:14.153Z,100849.25
2018-12-12T19:25:40.906Z,100852.05
2018-12-12T19:28:07.629Z,100855.25
2018-12-12T19:30:34.391Z,100857.09
2018-12-12T19:33:01.169Z,100860.20
2018-12-12T19:35:27.935Z,100857.86
2018-12-12T19:37:54.660Z,100855.16
2018-12-12T19:40:21.383Z,100853.56
2018-12-12T19:42:48.184Z,100848.10
2018-12-12T19:45:14.928Z,100851.44
2018-12-12T19:47:41.697Z,100851.98
2018-12-12T19:50:08.488Z,100848.73
2018-12-12T19:52:35.236Z,100841.02
2018-12-12T19:55:01.981Z,100847.93
2018-12-12T19:57:28.806Z,100850.50
2018-12-12T19:59:55.528Z,100847.16
2018-12-12T20:02:22.444Z,100836.53
2018-12-12T20:04:49.188Z,100836.99
2018-12-12T20:07:15.936Z,100833.08
2018-12-12T20:09:42.677Z,100834.51
2018-12-12T20:12:09.432Z,100835.44
2018-12-12T20:14:36.228Z,100834.33
2018-12-12T20:17:02.989Z,100826.13
2018-12-12T20:19:29.730Z,100826.81
2018-12-12T20:21:56.521Z,100823.05
2018-12-12T20:24:23.330Z,100825.80
2018-12-12T20:26:50.236Z,100820.91
2018-12-12T20:29:16.934Z,100811.97
2018-12-12T20:31:43.703Z,100819.00
2018-12-12T20:34:10.436Z,100821.21
2018-12-12T20:36:37.220Z,100824.42
2018-12-12T20:39:05.687Z,100829.20
2018-12-12T20:41:32.457Z,100827.27
2018-12-12T20:43:59.208Z,100830.44
2018-12-12T20:46:25.952Z,100826.44
2018-12-12T20:48:52.676Z,100828.01
2018-12-12T20:51:19.428Z,100820.75
2018-12-12T20:53:46.160Z,100831.83
2018-12-12T20:56:12.944Z,100828.30
2018-12-12T20:58:39.676Z,100825.69
2018-12-12T21:01:06.431Z,100828.75
2018-12-12T21:03:33.183Z,100820.21
2018-12-12T21:05:59.942Z,100822.70
2018-12-12T21:08:26.708Z,100822.60
2018-12-12T21:10:53.439Z,100824.57
2018-12-12T21:13:20.268Z,100815.89
2018-12-12T21:15:47.448Z,100812.03
2018-12-12T21:18:14.289Z,100809.28
2018-12-12T21:20:41.012Z,100809.20
2018-12-12T21:23:07.771Z,100819.52
2018-12-12T21:25:34.516Z,100806.57
2018-12-12T21:28:01.256Z,100802.98
2018-12-12T21:30:28.044Z,100798.30
2018-12-12T21:32:54.791Z,100806.24
2018-12-12T21:35:21.524Z,100805.69
2018-12-12T21:37:48.328Z,100803.43
2018-12-12T21:40:15.056Z,100804.33
2018-12-12T21:42:41.795Z,100800.70
2018-12-12T21:45:08.524Z,100800.94
2018-12-12T21:47:35.268Z,100799.22
2018-12-12T21:50:02.060Z,100801.51
2018-12-12T21:52:28.809Z,100799.96
2018-12-12T21:54:55.556Z,100803.33
2018-12-12T21:57:22.297Z,100802.44
2018-12-12T21:59:49.063Z,100801.89
2018-12-12T22:02:16.600Z,100808.66
2018-12-12T22:04:43.344Z,100791.86
2018-12-12T22:07:10.093Z,100794.08
2018-12-12T22:09:36.820Z,100800.39
2018-12-12T22:12:03.596Z,100798.39
2018-12-12T22:14:30.320Z,100800.30
2018-12-12T22:16:57.070Z,100797.38
2018-12-12T22:19:23.796Z,100801.31
2018-12-12T22:21:50.539Z,100795.89
2018-12-12T22:24:17.336Z,100803.63
2018-12-12T22:26:44.097Z,100801.79
2018-12-12T22:29:10.827Z,100799.16
2018-12-12T22:31:37.574Z,100799.98
2018-12-12T22:34:04.296Z,100799.56
2018-12-12T22:36:31.046Z,100806.03
2018-12-12T22:38:57.784Z,100804.09
2018-12-12T22:41:24.548Z,100799.70
2018-12-12T22:43:51.268Z,100794.52
2018-12-12T22:46:18.000Z,100787.11
2018-12-12T22:48:44.760Z,100789.67
2018-12-12T22:51:11.495Z,100786.98
2018-12-12T22:53:38.379Z,100796.48
2018-12-12T22:56:05.149Z,100796.03
2018-12-12T22:58:31.924Z,100793.71
2018-12-12T23:01:09.412Z,100796.53
2018-12-12T23:03:36.156Z,100796.16
2018-12-12T23:06:02.884Z,100791.61
2018-12-12T23:08:29.637Z,100797.27
2018-12-12T23:10:56.376Z,100789.91
2018-12-12T23:13:23.119Z,100789.82
2018-12-12T23:15:49.841Z,100783.33
2018-12-12T23:18:16.588Z,100780.77
2018-12-12T23:20:43.369Z,100782.30
2018-12-12T23:23:10.193Z,100780.19
2018-12-12T23:25:36.921Z,100775.42
2018-12-12T23:28:03.694Z,100772.94
2018-12-12T23:30:30.416Z,100773.84
2018-12-12T23:32:57.159Z,100781.55
2018-12-12T23:35:24.006Z,100764.03
2018-12-12T23:37:50.744Z,100758.41
2018-12-12T23:40:17.468Z,100758.48
2018-12-12T23:42:44.860Z,100757.41
2018-12-12T23:45:10.989Z,100753.09
2018-12-12T23:47:37.736Z,100751.82
2018-12-12T23:50:04.636Z,100751.70
2018-12-12T23:52:31.391Z,100749.02
2018-12-12T23:54:58.189Z,100754.23
2018-12-12T23:57:24.948Z,100747.57
2018-12-12T23:59:51.724Z,100742.51
